createdAt,value
2019-02-18T00:01:02.224Z,8.90
2019-02-18T00:03:31.871Z,8.70
2019-02-18T00:06:01.431Z,9.00
2019-02-18T00:08:31.482Z,8.60
2019-02-18T00:11:01.219Z,8.80
2019-02-18T00:13:30.804Z,8.80
2019-02-18T00:16:00.375Z,8.70
2019-02-18T00:18:30.543Z,8.80
2019-02-18T00:21:00.084Z,8.80
2019-02-18T00:23:29.704Z,8.80
2019-02-18T00:25:59.516Z,8.70
2019-02-18T00:28:29.093Z,8.40
2019-02-18T00:30:58.685Z,8.50
2019-02-18T00:33:28.782Z,8.60
2019-02-18T00:35:58.604Z,8.60
2019-02-18T00:38:28.195Z,8.40
2019-02-18T00:40:58.291Z,8.50
2019-02-18T00:43:27.843Z,8.60
2019-02-18T00:45:57.673Z,8.40
2019-02-18T00:48:27.224Z,8.40
2019-02-18T00:50:56.824Z,8.50
2019-02-18T00:53:26.627Z,8.40
2019-02-18T00:55:56.516Z,8.40
2019-02-18T00:58:26.315Z,8.40
2019-02-18T01:00:55.888Z,8.40
2019-02-18T01:03:25.743Z,8.60
2019-02-18T01:05:55.544Z,8.40
2019-02-18T01:08:25.108Z,8.40
2019-02-18T01:10:55.018Z,8.50
2019-02-18T01:13:24.852Z,8.50
2019-02-18T01:15:54.387Z,8.40
2019-02-18T01:18:23.984Z,8.50
2019-02-18T01:20:53.831Z,8.40
2019-02-18T01:23:23.647Z,8.40
2019-02-18T01:25:53.251Z,8.40
2019-02-18T01:28:22.811Z,8.50
2019-02-18T01:30:52.419Z,8.50
2019-02-18T01:33:22.236Z,8.40
2019-02-18T01:35:52.355Z,8.50
2019-02-18T01:38:21.970Z,8.50
2019-02-18T01:40:51.628Z,8.40
2019-02-18T01:43:21.218Z,8.60
2019-02-18T01:45:51.025Z,8.40
2019-02-18T01:48:20.865Z,8.40
2019-02-18T01:50:50.436Z,8.40
2019-02-18T01:53:20.775Z,8.40
2019-02-18T01:55:50.331Z,8.40
2019-02-18T01:58:19.907Z,8.60
2019-02-18T02:00:49.725Z,8.40
2019-02-18T02:03:19.293Z,8.40
2019-02-18T02:05:49.155Z,8.30
2019-02-18T02:08:18.699Z,8.50
2019-02-18T02:10:48.403Z,8.50
2019-02-18T02:13:42.771Z,8.70
2019-02-18T02:16:13.619Z,8.70
2019-02-18T02:18:43.469Z,8.90
2019-02-18T02:21:13.336Z,8.70
2019-02-18T02:23:42.995Z,8.80
2019-02-18T02:26:12.580Z,9.20
2019-02-18T02:28:42.735Z,9.50
2019-02-18T02:31:12.623Z,9.30
2019-02-18T02:33:42.562Z,9.40
2019-02-18T02:36:12.622Z,9.40
2019-02-18T02:38:42.239Z,9.40
2019-02-18T02:41:12.344Z,9.80
2019-02-18T02:43:42.436Z,9.50
2019-02-18T02:46:11.983Z,9.80
2019-02-18T02:48:42.144Z,9.40
2019-02-18T02:51:11.940Z,9.50
2019-02-18T02:53:41.786Z,9.30
2019-02-18T02:56:11.584Z,9.30
2019-02-18T02:58:41.386Z,9.10
2019-02-18T03:01:11.501Z,9.40
2019-02-18T03:03:42.249Z,9.20
2019-02-18T03:06:12.362Z,9.20
2019-02-18T03:08:42.189Z,9.30
2019-02-18T03:11:12.252Z,9.30
2019-02-18T03:13:42.154Z,9.30
2019-02-18T03:16:11.948Z,9.20
2019-02-18T03:18:41.773Z,9.30
2019-02-18T03:21:11.596Z,9.70
2019-02-18T03:23:41.699Z,9.30
2019-02-18T03:26:12.023Z,9.20
2019-02-18T03:29:40.632Z,9.30
2019-02-18T03:32:10.723Z,9.40
2019-02-18T03:34:43.178Z,9.40
2019-02-18T03:37:13.284Z,9.40
2019-02-18T03:39:43.148Z,9.20
2019-02-18T03:42:12.744Z,9.40
2019-02-18T03:44:42.549Z,9.40
2019-02-18T03:47:12.484Z,9.70
2019-02-18T03:49:42.294Z,9.50
2019-02-18T03:52:11.908Z,9.70
2019-02-18T03:54:41.868Z,9.60
2019-02-18T03:57:12.018Z,9.60
2019-02-18T03:59:41.583Z,9.60
2019-02-18T04:02:11.152Z,9.60
2019-02-18T04:04:40.732Z,9.50
2019-02-18T04:07:10.560Z,9.80
2019-02-18T04:09:40.910Z,9.70
2019-02-18T04:12:10.527Z,9.70
2019-02-18T04:14:40.082Z,9.70
2019-02-18T04:17:09.657Z,10.00
2019-02-18T04:19:39.219Z,10.20
2019-02-18T04:22:08.823Z,10.10
2019-02-18T04:24:38.359Z,9.90
2019-02-18T04:27:08.703Z,9.90
2019-02-18T04:29:38.340Z,9.90
2019-02-18T04:32:07.860Z,10.20
2019-02-18T04:34:37.497Z,10.00
2019-02-18T04:37:07.332Z,10.20
2019-02-18T04:39:36.902Z,10.20
2019-02-18T04:42:06.527Z,10.10
2019-02-18T04:44:36.128Z,10.10
2019-02-18T04:47:06.269Z,10.00
2019-02-18T04:49:36.131Z,10.00
2019-02-18T04:52:05.826Z,10.20
2019-02-18T04:54:35.901Z,10.20
2019-02-18T04:57:05.694Z,10.10
2019-02-18T04:59:35.511Z,10.10
2019-02-18T05:02:05.216Z,10.10
2019-02-18T05:04:35.040Z,10.00
2019-02-18T05:07:04.619Z,9.90
2019-02-18T05:09:34.713Z,9.80
2019-02-18T05:12:04.284Z,9.80
2019-02-18T05:14:34.149Z,9.70
2019-02-18T05:17:03.742Z,9.60
2019-02-18T05:19:33.629Z,9.80
2019-02-18T05:22:03.263Z,9.60
2019-02-18T05:24:32.838Z,9.50
2019-02-18T05:27:02.383Z,9.30
2019-02-18T05:29:32.218Z,9.50
2019-02-18T05:32:02.189Z,9.40
2019-02-18T05:34:32.007Z,9.20
2019-02-18T05:37:01.829Z,9.10
2019-02-18T05:39:31.464Z,9.20
2019-02-18T05:42:01.045Z,9.20
2019-02-18T05:44:30.907Z,9.20
2019-02-18T05:47:00.459Z,9.10
2019-02-18T05:49:30.270Z,9.20
2019-02-18T05:51:59.888Z,9.20
2019-02-18T05:54:29.748Z,8.80
2019-02-18T05:56:59.547Z,9.10
2019-02-18T05:59:30.251Z,8.80
2019-02-18T06:01:59.825Z,8.80
2019-02-18T06:04:29.380Z,8.90
2019-02-18T06:06:59.245Z,8.80
2019-02-18T06:09:30.318Z,8.80
2019-02-18T06:12:00.016Z,8.80
2019-02-18T06:14:30.136Z,8.70
2019-02-18T06:16:59.719Z,8.70
2019-02-18T06:19:29.248Z,8.90
2019-02-18T06:21:58.907Z,8.80
2019-02-18T06:24:28.904Z,9.00
2019-02-18T06:26:58.490Z,8.70
2019-02-18T06:29:28.304Z,8.70
2019-02-18T06:31:58.368Z,8.90
2019-02-18T06:34:28.440Z,8.90
2019-02-18T06:36:58.309Z,8.50
2019-02-18T06:39:28.361Z,9.00
2019-02-18T06:41:58.183Z,8.50
2019-02-18T06:44:38.769Z,8.70
2019-02-18T06:47:12.178Z,8.50
2019-02-18T06:49:42.031Z,8.80
2019-02-18T06:52:11.561Z,8.90
2019-02-18T06:54:41.171Z,9.00
2019-02-18T06:57:24.684Z,8.70
2019-02-18T06:59:57.060Z,8.70
2019-02-18T07:02:45.769Z,8.70
2019-02-18T07:05:37.521Z,8.80
2019-02-18T07:08:16.314Z,8.80
2019-02-18T07:11:08.144Z,8.90
2019-02-18T07:13:37.731Z,8.90
2019-02-18T07:16:07.351Z,9.00
2019-02-18T07:18:37.139Z,9.00
2019-02-18T07:21:06.735Z,8.80
2019-02-18T07:23:36.807Z,9.10
2019-02-18T07:26:06.415Z,9.10
2019-02-18T07:28:35.972Z,9.20
2019-02-18T07:31:05.554Z,9.20
2019-02-18T07:33:35.093Z,9.80
2019-02-18T07:36:04.659Z,9.40
2019-02-18T07:38:37.513Z,9.40
2019-02-18T07:41:07.619Z,9.70
2019-02-18T07:43:37.149Z,9.50
2019-02-18T07:46:07.235Z,9.60
2019-02-18T07:48:37.293Z,9.60
2019-02-18T07:51:06.824Z,9.70
2019-02-18T07:53:36.361Z,10.10
2019-02-18T07:56:05.940Z,10.00
2019-02-18T07:58:35.523Z,10.30
2019-02-18T08:01:05.345Z,10.20
2019-02-18T08:03:34.939Z,10.40
2019-02-18T08:06:04.529Z,10.60
2019-02-18T08:08:34.099Z,10.90
2019-02-18T08:11:03.640Z,11.00
2019-02-18T08:13:33.247Z,11.00
2019-02-18T08:16:02.760Z,11.20
2019-02-18T08:18:32.351Z,11.40
2019-02-18T08:21:01.895Z,11.40
2019-02-18T08:23:31.507Z,11.40
2019-02-18T08:26:01.865Z,11.50
2019-02-18T08:28:31.416Z,11.60
2019-02-18T08:31:00.988Z,11.60
2019-02-18T08:33:30.578Z,11.70
2019-02-18T08:36:00.737Z,11.70
2019-02-18T08:38:32.369Z,11.70
2019-02-18T08:41:02.000Z,12.00
2019-02-18T08:43:31.834Z,11.90
2019-02-18T08:46:01.590Z,12.00
2019-02-18T08:48:31.389Z,12.10
2019-02-18T08:51:02.772Z,12.20
2019-02-18T08:53:32.520Z,12.30
2019-02-18T08:56:02.169Z,12.40
2019-02-18T08:58:32.039Z,12.50
2019-02-18T09:01:02.852Z,12.60
2019-02-18T09:03:32.916Z,12.80
2019-02-18T09:06:02.756Z,12.90
2019-02-18T09:08:32.335Z,13.10
2019-02-18T09:11:01.960Z,13.30
2019-02-18T09:13:31.633Z,13.40
2019-02-18T09:16:01.473Z,13.50
2019-02-18T09:18:31.300Z,13.60
2019-02-18T09:21:01.307Z,13.60
2019-02-18T09:23:54.105Z,13.60
2019-02-18T09:26:23.948Z,13.70
2019-02-18T09:28:53.499Z,13.80
2019-02-18T09:31:29.325Z,13.80
2019-02-18T09:33:58.854Z,13.90
2019-02-18T09:36:28.744Z,13.90
2019-02-18T09:38:58.283Z,13.90
2019-02-18T09:41:27.950Z,13.90
2019-02-18T09:43:57.458Z,13.90
2019-02-18T09:46:27.374Z,14.00
2019-02-18T09:48:56.891Z,14.10
2019-02-18T09:51:26.487Z,14.20
2019-02-18T09:53:56.028Z,14.40
2019-02-18T09:56:25.613Z,14.40
2019-02-18T09:58:55.206Z,14.50
2019-02-18T10:01:25.111Z,14.50
2019-02-18T10:03:54.673Z,14.60
2019-02-18T10:06:24.240Z,14.70
2019-02-18T10:08:53.847Z,14.80
2019-02-18T10:11:23.468Z,14.90
2019-02-18T10:13:53.397Z,15.10
2019-02-18T10:16:23.246Z,15.20
2019-02-18T10:18:53.004Z,15.30
2019-02-18T10:21:22.887Z,15.40
2019-02-18T10:23:52.492Z,15.40
2019-02-18T10:26:22.047Z,15.50
2019-02-18T10:28:51.944Z,15.50
2019-02-18T10:31:22.061Z,15.60
2019-02-18T10:33:51.667Z,15.80
2019-02-18T10:36:21.244Z,15.90
2019-02-18T10:38:50.928Z,16.00
2019-02-18T10:41:21.028Z,16.00
2019-02-18T10:43:50.655Z,16.00
2019-02-18T10:46:20.467Z,16.10
2019-02-18T10:48:50.082Z,16.20
2019-02-18T10:51:19.650Z,16.40
2019-02-18T10:53:49.873Z,16.60
2019-02-18T10:56:19.467Z,16.80
2019-02-18T10:58:49.549Z,16.90
2019-02-18T11:01:19.189Z,17.10
2019-02-18T11:03:48.783Z,17.20
2019-02-18T11:06:18.664Z,17.30
2019-02-18T11:08:48.300Z,17.40
2019-02-18T11:11:17.957Z,17.60
2019-02-18T11:13:47.567Z,17.70
2019-02-18T11:16:17.160Z,17.70
2019-02-18T11:18:46.744Z,17.80
2019-02-18T11:21:16.630Z,17.80
2019-02-18T11:23:46.235Z,17.90
2019-02-18T11:26:16.097Z,17.90
2019-02-18T11:28:45.658Z,18.00
2019-02-18T11:31:15.319Z,18.00
2019-02-18T11:33:45.062Z,18.00
2019-02-18T11:36:14.657Z,18.00
2019-02-18T11:38:44.776Z,18.00
2019-02-18T11:41:14.420Z,18.10
2019-02-18T11:43:44.263Z,18.10
2019-02-18T11:46:14.072Z,18.20
2019-02-18T11:48:43.965Z,18.20
2019-02-18T11:51:14.123Z,18.20
2019-02-18T11:53:44.242Z,18.20
2019-02-18T11:56:13.881Z,18.20
2019-02-18T11:58:43.414Z,18.30
2019-02-18T12:01:13.776Z,18.40
2019-02-18T12:03:43.628Z,18.50
2019-02-18T12:06:14.116Z,18.60
2019-02-18T12:08:43.685Z,18.70
2019-02-18T12:11:13.993Z,18.70
2019-02-18T12:13:43.833Z,18.80
2019-02-18T12:16:13.387Z,18.80
2019-02-18T12:18:43.555Z,18.90
2019-02-18T12:21:13.231Z,18.90
2019-02-18T12:23:43.147Z,19.00
2019-02-18T12:26:12.953Z,18.90
2019-02-18T12:28:45.038Z,19.00
2019-02-18T12:31:14.124Z,19.10
2019-02-18T12:33:44.274Z,19.00
2019-02-18T12:36:13.867Z,19.00
2019-02-18T12:38:43.656Z,19.00
2019-02-18T12:41:13.543Z,19.00
2019-02-18T12:43:43.649Z,19.10
2019-02-18T12:46:15.861Z,19.20
2019-02-18T12:48:44.443Z,19.30
2019-02-18T12:51:14.422Z,19.40
2019-02-18T12:53:46.164Z,19.40
2019-02-18T12:56:15.533Z,19.30
2019-02-18T12:58:54.485Z,19.20
2019-02-18T13:01:17.317Z,19.20
2019-02-18T13:03:47.382Z,19.20
2019-02-18T13:06:17.301Z,19.20
2019-02-18T13:08:46.882Z,19.20
2019-02-18T13:11:16.756Z,19.10
2019-02-18T13:13:46.344Z,19.00
2019-02-18T13:16:16.172Z,19.10
2019-02-18T13:18:46.348Z,19.10
2019-02-18T13:21:15.947Z,19.10
2019-02-18T13:23:45.496Z,19.20
2019-02-18T13:26:15.077Z,19.20
2019-02-18T13:28:44.931Z,19.30
2019-02-18T13:31:14.684Z,19.40
2019-02-18T13:33:44.563Z,19.50
2019-02-18T13:36:15.871Z,19.60
2019-02-18T13:38:46.284Z,19.70
2019-02-18T13:41:16.135Z,19.80
2019-02-18T13:43:45.730Z,20.00
2019-02-18T13:46:15.800Z,20.10
2019-02-18T13:48:45.352Z,20.10
2019-02-18T13:51:15.461Z,20.10
2019-02-18T13:53:45.268Z,20.20
2019-02-18T13:56:14.890Z,20.20
2019-02-18T13:58:45.005Z,20.20
2019-02-18T14:01:14.647Z,20.10
2019-02-18T14:03:44.484Z,20.10
2019-02-18T14:06:14.062Z,20.10
2019-02-18T14:08:43.644Z,20.20
2019-02-18T14:11:13.185Z,20.30
2019-02-18T14:13:42.859Z,20.40
2019-02-18T14:16:12.762Z,20.40
2019-02-18T14:18:42.651Z,20.30
2019-02-18T14:21:12.465Z,20.30
2019-02-18T14:23:42.272Z,20.20
2019-02-18T14:26:11.890Z,20.20
2019-02-18T14:28:41.747Z,20.20
2019-02-18T14:31:11.301Z,20.20
2019-02-18T14:33:41.222Z,20.20
2019-02-18T14:36:11.583Z,20.20
2019-02-18T14:38:41.142Z,20.20
2019-02-18T14:41:11.171Z,20.20
2019-02-18T14:43:40.977Z,20.10
2019-02-18T14:46:10.862Z,20.10
2019-02-18T14:48:40.408Z,20.00
2019-02-18T14:51:10.504Z,20.10
2019-02-18T14:53:40.026Z,20.10
2019-02-18T14:56:11.331Z,20.20
2019-02-18T14:58:41.253Z,20.30
2019-02-18T15:01:11.876Z,20.30
2019-02-18T15:03:41.365Z,20.30
2019-02-18T15:06:10.986Z,20.20
2019-02-18T15:08:40.772Z,20.20
2019-02-18T15:11:10.835Z,20.10
2019-02-18T15:13:40.932Z,20.20
2019-02-18T15:16:10.477Z,20.20
2019-02-18T15:18:40.138Z,20.30
2019-02-18T15:21:09.742Z,20.30
2019-02-18T15:23:39.312Z,20.30
2019-02-18T15:26:09.112Z,20.40
2019-02-18T15:28:38.677Z,20.30
2019-02-18T15:31:08.547Z,20.30
2019-02-18T15:33:38.214Z,20.20
2019-02-18T15:36:07.864Z,20.10
2019-02-18T15:38:37.735Z,20.00
2019-02-18T15:41:07.291Z,19.90
2019-02-18T15:43:37.127Z,19.90
2019-02-18T15:46:06.796Z,19.80
2019-02-18T15:48:36.673Z,19.70
2019-02-18T15:51:06.356Z,19.60
2019-02-18T15:53:36.598Z,19.50
2019-02-18T15:56:06.235Z,19.30
2019-02-18T15:58:36.333Z,19.10
2019-02-18T16:01:06.244Z,18.90
2019-02-18T16:03:36.218Z,18.70
2019-02-18T16:06:05.772Z,18.50
2019-02-18T16:08:35.591Z,18.20
2019-02-18T16:11:05.752Z,18.00
2019-02-18T16:13:35.363Z,17.70
2019-02-18T16:16:05.199Z,17.60
2019-02-18T16:18:35.091Z,17.30
2019-02-18T16:21:04.936Z,17.20
2019-02-18T16:23:34.935Z,17.00
2019-02-18T16:26:04.473Z,16.80
2019-02-18T16:28:34.215Z,16.60
2019-02-18T16:31:04.081Z,16.50
2019-02-18T16:33:33.959Z,16.40
2019-02-18T16:36:03.823Z,16.20
2019-02-18T16:38:33.876Z,16.10
2019-02-18T16:41:03.704Z,15.90
2019-02-18T16:43:33.503Z,15.70
2019-02-18T16:46:03.656Z,15.60
2019-02-18T16:48:34.155Z,15.50
2019-02-18T16:51:04.075Z,15.30
2019-02-18T16:53:42.291Z,15.20
2019-02-18T16:56:11.958Z,15.10
2019-02-18T16:58:41.523Z,15.00
2019-02-18T17:01:11.324Z,14.90
2019-02-18T17:03:41.746Z,14.90
2019-02-18T17:06:11.599Z,14.70
2019-02-18T17:08:41.234Z,14.60
2019-02-18T17:11:10.818Z,14.40
2019-02-18T17:13:40.416Z,14.20
2019-02-18T17:16:10.134Z,14.10
2019-02-18T17:18:39.755Z,14.00
2019-02-18T17:21:09.324Z,13.80
2019-02-18T17:23:38.899Z,13.70
2019-02-18T17:26:08.722Z,13.60
2019-02-18T17:28:38.637Z,13.50
2019-02-18T17:31:08.581Z,13.40
2019-02-18T17:33:39.005Z,13.30
2019-02-18T17:36:08.682Z,13.30
2019-02-18T17:38:40.668Z,13.30
2019-02-18T17:41:10.263Z,13.20
2019-02-18T17:43:40.502Z,13.30
2019-02-18T17:46:10.315Z,13.20
2019-02-18T17:48:42.246Z,13.20
2019-02-18T17:51:12.142Z,13.20
2019-02-18T17:53:41.696Z,13.20
2019-02-18T17:56:11.426Z,13.10
2019-02-18T17:58:44.440Z,13.20
2019-02-18T18:01:14.030Z,13.10
2019-02-18T18:03:43.907Z,13.10
2019-02-18T18:06:13.507Z,13.00
2019-02-18T18:08:43.863Z,13.00
2019-02-18T18:11:13.576Z,12.90
2019-02-18T18:13:43.392Z,12.80
2019-02-18T18:16:12.946Z,12.80
2019-02-18T18:18:45.283Z,12.70
2019-02-18T18:21:15.146Z,12.80
2019-02-18T18:23:44.718Z,12.80
2019-02-18T18:26:14.289Z,12.70
2019-02-18T18:28:43.960Z,12.60
2019-02-18T18:31:13.823Z,12.60
2019-02-18T18:33:43.467Z,12.50
2019-02-18T18:36:13.331Z,12.50
2019-02-18T18:38:43.012Z,12.50
2019-02-18T18:41:13.131Z,12.50
2019-02-18T18:43:42.714Z,12.50
2019-02-18T18:46:12.347Z,12.50
2019-02-18T18:48:42.221Z,12.50
2019-02-18T18:51:12.064Z,12.60
2019-02-18T18:53:42.097Z,12.60
2019-02-18T18:56:11.979Z,12.50
2019-02-18T18:58:41.628Z,12.50
2019-02-18T19:01:11.467Z,12.50
2019-02-18T19:03:41.027Z,12.50
2019-02-18T19:06:10.863Z,12.40
2019-02-18T19:08:40.933Z,12.30
2019-02-18T19:11:10.537Z,12.40
2019-02-18T19:13:42.142Z,12.40
2019-02-18T19:16:11.785Z,12.40
2019-02-18T19:18:42.458Z,12.40
2019-02-18T19:21:12.651Z,12.30
2019-02-18T19:23:43.001Z,12.30
2019-02-18T19:26:12.815Z,12.30
2019-02-18T19:28:42.935Z,12.30
2019-02-18T19:31:12.765Z,12.30
2019-02-18T19:33:42.748Z,12.30
2019-02-18T19:36:12.680Z,12.20
2019-02-18T19:38:42.801Z,12.20
2019-02-18T19:41:12.403Z,12.20
2019-02-18T19:43:50.053Z,12.30
2019-02-18T19:46:13.799Z,12.30
2019-02-18T19:48:43.629Z,12.20
2019-02-18T19:51:13.443Z,12.40
2019-02-18T19:53:43.356Z,12.40
2019-02-18T19:56:13.129Z,12.40
2019-02-18T19:58:42.908Z,12.40
2019-02-18T20:01:13.836Z,12.40
2019-02-18T20:03:44.231Z,12.40
2019-02-18T20:06:13.917Z,12.40
2019-02-18T20:08:43.449Z,12.40
2019-02-18T20:11:13.164Z,12.50
2019-02-18T20:13:43.004Z,12.50
2019-02-18T20:16:13.169Z,12.50
2019-02-18T20:18:43.043Z,12.50
2019-02-18T20:21:12.694Z,12.50
2019-02-18T20:23:42.284Z,12.50
2019-02-18T20:26:12.062Z,12.50
2019-02-18T20:28:41.613Z,12.50
2019-02-18T20:31:11.509Z,12.50
2019-02-18T20:33:41.607Z,12.40
2019-02-18T20:36:11.213Z,12.70
2019-02-18T20:38:40.804Z,12.40
2019-02-18T20:41:10.748Z,12.40
2019-02-18T20:43:40.698Z,12.40
2019-02-18T20:46:10.614Z,12.30
2019-02-18T20:48:40.723Z,12.30
2019-02-18T20:51:10.697Z,12.20
2019-02-18T20:53:40.619Z,12.20
2019-02-18T20:56:10.689Z,12.10
2019-02-18T20:58:40.700Z,12.10
2019-02-18T21:01:10.389Z,12.00
2019-02-18T21:03:39.936Z,11.90
2019-02-18T21:06:09.531Z,11.80
2019-02-18T21:08:39.487Z,11.80
2019-02-18T21:11:09.104Z,11.70
2019-02-18T21:13:39.207Z,11.70
2019-02-18T21:16:08.857Z,11.70
2019-02-18T21:18:38.477Z,11.60
2019-02-18T21:21:08.168Z,11.60
2019-02-18T21:23:38.346Z,11.60
2019-02-18T21:26:08.043Z,11.60
2019-02-18T21:28:37.873Z,11.80
2019-02-18T21:31:07.428Z,11.50
2019-02-18T21:33:37.556Z,11.50
2019-02-18T21:36:07.112Z,11.50
2019-02-18T21:38:36.747Z,11.60
2019-02-18T21:41:06.292Z,11.60
2019-02-18T21:43:35.912Z,11.50
2019-02-18T21:46:05.511Z,11.50
2019-02-18T21:48:35.116Z,11.50
2019-02-18T21:51:04.766Z,11.50
2019-02-18T21:53:34.647Z,11.40
2019-02-18T21:56:04.612Z,11.40
2019-02-18T21:58:35.618Z,11.50
2019-02-18T22:01:05.487Z,11.40
2019-02-18T22:03:35.431Z,11.40
2019-02-18T22:06:05.003Z,11.40
2019-02-18T22:08:39.062Z,11.40
2019-02-18T22:11:09.184Z,11.40
2019-02-18T22:13:38.887Z,11.20
2019-02-18T22:16:08.504Z,11.50
2019-02-18T22:18:38.425Z,11.50
2019-02-18T22:21:08.323Z,11.50
2019-02-18T22:23:38.146Z,11.30
2019-02-18T22:26:07.737Z,11.50
2019-02-18T22:28:37.296Z,11.50
2019-02-18T22:31:06.900Z,11.50
2019-02-18T22:33:36.739Z,11.80
2019-02-18T22:36:06.588Z,11.40
2019-02-18T22:38:36.394Z,11.30
2019-02-18T22:41:06.683Z,11.70
2019-02-18T22:43:36.300Z,11.50
2019-02-18T22:46:05.955Z,11.50
2019-02-18T22:48:35.818Z,11.60
2019-02-18T22:51:05.395Z,11.60
2019-02-18T22:53:35.301Z,11.70
2019-02-18T22:56:05.010Z,11.60
2019-02-18T22:58:34.827Z,11.60
2019-02-18T23:01:05.786Z,11.70
2019-02-18T23:03:35.639Z,11.70
2019-02-18T23:06:05.496Z,11.70
2019-02-18T23:08:35.030Z,11.80
2019-02-18T23:11:05.021Z,11.70
2019-02-18T23:13:34.592Z,11.60
2019-02-18T23:16:04.520Z,11.60
2019-02-18T23:18:34.666Z,11.60
2019-02-18T23:21:04.667Z,11.70
2019-02-18T23:23:34.450Z,11.80
2019-02-18T23:26:04.471Z,11.60
2019-02-18T23:28:34.108Z,11.50
2019-02-18T23:31:04.263Z,11.50
2019-02-18T23:33:33.855Z,11.50
2019-02-18T23:36:03.451Z,11.50
2019-02-18T23:38:33.251Z,11.50
2019-02-18T23:41:03.324Z,11.20
2019-02-18T23:43:32.956Z,11.40
2019-02-18T23:46:02.534Z,11.40
2019-02-18T23:48:32.415Z,11.40
2019-02-18T23:51:02.501Z,11.40
2019-02-18T23:53:32.107Z,11.40
2019-02-18T23:56:01.668Z,11.40
2019-02-18T23:58:31.261Z,11.40
